createdAt,value
2016-08-11T00:00:07.640Z,23.47
2016-08-11T00:01:07.647Z,23.42
2016-08-11T00:02:09.563Z,23.42
2016-08-11T00:03:07.651Z,23.47
2016-08-11T00:04:07.658Z,23.44
2016-08-11T00:05:07.662Z,23.42
2016-08-11T00:06:07.716Z,23.41
2016-08-11T00:07:08.393Z,23.47
2016-08-11T00:08:07.676Z,23.47
2016-08-11T00:09:07.688Z,23.47
2016-08-11T00:10:07.689Z,23.48
2016-08-11T00:11:07.692Z,23.35
2016-08-11T00:12:07.696Z,23.34
2016-08-11T00:13:07.701Z,23.41
2016-08-11T00:14:07.710Z,23.45
2016-08-11T00:15:07.711Z,23.44
2016-08-11T00:16:07.715Z,23.47
2016-08-11T00:17:07.722Z,23.4
2016-08-11T00:18:07.724Z,23.42
2016-08-11T00:19:07.735Z,23.42
2016-08-11T00:20:07.740Z,23.44
2016-08-11T00:21:07.743Z,23.44
2016-08-11T00:22:07.762Z,23.38
2016-08-11T00:23:07.755Z,23.4
2016-08-11T00:24:07.768Z,23.44
2016-08-11T00:25:07.762Z,23.44
2016-08-11T00:26:07.769Z,23.41
2016-08-11T00:27:07.771Z,23.38
2016-08-11T00:28:07.778Z,23.34
2016-08-11T00:29:07.788Z,23.28
2016-08-11T00:30:07.797Z,23.29
2016-08-11T00:31:07.791Z,23.37
2016-08-11T00:32:07.807Z,23.37
2016-08-11T00:33:07.800Z,23.42
2016-08-11T00:34:07.808Z,23.38
2016-08-11T00:35:07.811Z,23.34
2016-08-11T00:36:07.814Z,23.37
2016-08-11T00:37:07.825Z,23.41
2016-08-11T00:38:07.828Z,23.4
2016-08-11T00:39:07.838Z,23.29
2016-08-11T00:40:07.844Z,23.42
2016-08-11T00:41:07.842Z,23.4
2016-08-11T00:42:07.846Z,23.38
2016-08-11T00:43:07.869Z,23.4
2016-08-11T00:44:07.869Z,23.38
2016-08-11T00:45:07.863Z,23.4
2016-08-11T00:46:07.868Z,23.42
2016-08-11T00:47:07.876Z,23.4
2016-08-11T00:48:07.878Z,23.38
2016-08-11T00:49:07.898Z,23.37
2016-08-11T00:50:07.885Z,23.4
2016-08-11T00:51:07.898Z,23.4
2016-08-11T00:52:07.896Z,23.41
2016-08-11T00:53:08.051Z,23.38
2016-08-11T00:54:07.912Z,23.38
2016-08-11T00:55:07.911Z,23.41
2016-08-11T00:56:07.916Z,23.35
2016-08-11T00:57:07.926Z,23.38
2016-08-11T00:58:07.947Z,23.4
2016-08-11T00:59:08.201Z,23.35
2016-08-11T01:00:07.935Z,23.47
2016-08-11T01:01:07.949Z,23.45
2016-08-11T01:02:07.947Z,23.42
2016-08-11T01:03:07.956Z,23.41
2016-08-11T01:04:07.960Z,23.38
2016-08-11T01:05:07.968Z,23.4
2016-08-11T01:06:09.140Z,23.4
2016-08-11T01:07:07.981Z,23.42
2016-08-11T01:08:07.984Z,23.37
2016-08-11T01:09:07.988Z,23.34
2016-08-11T01:10:07.989Z,23.38
2016-08-11T01:11:08.001Z,23.41
2016-08-11T01:12:08.007Z,23.4
2016-08-11T01:13:08.002Z,23.41
2016-08-11T01:14:08.008Z,23.41
2016-08-11T01:15:08.014Z,23.41
2016-08-11T01:16:08.019Z,23.41
2016-08-11T01:17:08.034Z,23.4
2016-08-11T01:18:08.027Z,23.38
2016-08-11T01:19:08.033Z,23.41
2016-08-11T01:20:08.042Z,23.4
2016-08-11T01:21:08.061Z,23.41
2016-08-11T01:22:08.048Z,23.42
2016-08-11T01:23:08.051Z,23.37
2016-08-11T01:24:08.078Z,23.4
2016-08-11T01:25:08.062Z,23.34
2016-08-11T01:26:08.069Z,23.38
2016-08-11T01:27:08.079Z,23.42
2016-08-11T01:28:08.078Z,23.37
2016-08-11T01:29:08.082Z,23.44
2016-08-11T01:30:08.092Z,23.4
2016-08-11T01:31:08.090Z,23.41
2016-08-11T01:32:08.102Z,23.4
2016-08-11T01:33:08.111Z,23.37
2016-08-11T01:34:08.118Z,23.38
2016-08-11T01:35:08.116Z,23.4
2016-08-11T01:36:08.122Z,23.42
2016-08-11T01:37:08.128Z,23.41
2016-08-11T01:38:08.133Z,23.4
2016-08-11T01:39:08.136Z,23.44
2016-08-11T01:40:08.139Z,23.4
2016-08-11T01:41:08.145Z,23.28
2016-08-11T01:42:08.148Z,23.38
2016-08-11T01:43:08.151Z,23.28
2016-08-11T01:44:08.154Z,23.4
2016-08-11T01:45:08.168Z,23.35
2016-08-11T01:46:08.168Z,23.41
2016-08-11T01:47:08.174Z,23.44
2016-08-11T01:48:08.176Z,23.26
2016-08-11T01:49:08.185Z,23.41
2016-08-11T01:50:08.191Z,23.41
2016-08-11T01:51:08.194Z,23.25
2016-08-11T01:52:08.202Z,23.42
2016-08-11T01:53:08.252Z,23.35
2016-08-11T01:54:08.226Z,23.26
2016-08-11T01:55:08.213Z,23.42
2016-08-11T01:56:08.221Z,23.28
2016-08-11T01:57:08.220Z,23.41
2016-08-11T01:58:08.226Z,23.28
2016-08-11T01:59:08.235Z,23.38
2016-08-11T02:00:08.239Z,23.28
2016-08-11T02:01:08.245Z,23.24
2016-08-11T02:02:08.245Z,23.28
2016-08-11T02:03:08.250Z,23.28
2016-08-11T02:04:08.265Z,23.35
2016-08-11T02:05:08.268Z,23.35
2016-08-11T02:06:08.270Z,23.37
2016-08-11T02:07:08.273Z,23.37
2016-08-11T02:08:08.281Z,23.32
2016-08-11T02:09:08.284Z,23.41
2016-08-11T02:10:08.287Z,23.38
2016-08-11T02:11:08.300Z,23.28
2016-08-11T02:12:08.299Z,23.28
2016-08-11T02:13:08.308Z,23.28
2016-08-11T02:14:08.310Z,23.35
2016-08-11T02:15:08.320Z,23.29
2016-08-11T02:16:08.321Z,23.28
2016-08-11T02:17:08.322Z,23.35
2016-08-11T02:18:08.346Z,23.26
2016-08-11T02:19:08.335Z,23.28
2016-08-11T02:20:08.334Z,23.25
2016-08-11T02:21:08.342Z,23.26
2016-08-11T02:22:08.350Z,23.32
2016-08-11T02:23:08.354Z,23.22
2016-08-11T02:24:08.361Z,23.21
2016-08-11T02:25:08.370Z,23.28
2016-08-11T02:26:08.376Z,23.19
2016-08-11T02:27:08.373Z,23.34
2016-08-11T02:28:08.384Z,23.35
2016-08-11T02:29:08.383Z,23.37
2016-08-11T02:30:08.394Z,23.26
2016-08-11T02:31:08.396Z,23.25
2016-08-11T02:32:08.402Z,23.19
2016-08-11T02:33:08.408Z,23.26
2016-08-11T02:34:08.410Z,23.24
2016-08-11T02:35:08.416Z,23.24
2016-08-11T02:36:08.423Z,23.22
2016-08-11T02:37:08.429Z,23.28
2016-08-11T02:38:08.430Z,23.21
2016-08-11T02:39:08.433Z,23.32
2016-08-11T02:40:08.440Z,23.24
2016-08-11T02:41:08.443Z,23.29
2016-08-11T02:42:08.448Z,23.29
2016-08-11T02:43:08.466Z,23.21
2016-08-11T02:44:08.460Z,23.22
2016-08-11T02:45:08.465Z,23.24
2016-08-11T02:46:08.474Z,23.28
2016-08-11T02:47:08.487Z,23.24
2016-08-11T02:48:08.479Z,23.18
2016-08-11T02:49:08.491Z,23.26
2016-08-11T02:50:08.490Z,23.26
2016-08-11T02:51:08.502Z,23.21
2016-08-11T02:52:08.497Z,23.21
2016-08-11T02:53:08.506Z,23.32
2016-08-11T02:54:08.512Z,23.24
2016-08-11T02:55:08.509Z,23.22
2016-08-11T02:56:08.518Z,23.26
2016-08-11T02:57:08.527Z,23.29
2016-08-11T02:58:08.536Z,23.24
2016-08-11T02:59:08.533Z,23.28
2016-08-11T03:00:08.535Z,23.22
2016-08-11T03:01:08.541Z,23.19
2016-08-11T03:02:08.554Z,23.22
2016-08-11T03:03:08.558Z,23.26
2016-08-11T03:04:08.554Z,23.24
2016-08-11T03:05:08.568Z,23.22
2016-08-11T03:06:08.575Z,23.24
2016-08-11T03:07:10.263Z,23.22
2016-08-11T03:08:08.594Z,23.22
2016-08-11T03:09:08.593Z,23.25
2016-08-11T03:10:08.584Z,23.26
2016-08-11T03:11:08.591Z,23.24
2016-08-11T03:12:08.594Z,23.25
2016-08-11T03:13:08.615Z,23.24
2016-08-11T03:14:08.616Z,23.19
2016-08-11T03:15:08.610Z,23.24
2016-08-11T03:16:08.622Z,23.19
2016-08-11T03:17:08.622Z,23.21
2016-08-11T03:18:08.648Z,23.19
2016-08-11T03:19:08.629Z,23.25
2016-08-11T03:20:08.636Z,23.24
2016-08-11T03:21:08.660Z,23.19
2016-08-11T03:22:08.646Z,23.16
2016-08-11T03:23:08.651Z,23.24
2016-08-11T03:24:08.657Z,23.24
2016-08-11T03:25:08.661Z,23.26
2016-08-11T03:26:08.668Z,23.22
2016-08-11T03:27:08.672Z,23.25
2016-08-11T03:28:08.676Z,23.18
2016-08-11T03:29:08.677Z,23.28
2016-08-11T03:30:08.686Z,23.21
2016-08-11T03:31:08.694Z,23.25
2016-08-11T03:32:08.693Z,23.25
2016-08-11T03:33:08.704Z,23.21
2016-08-11T03:34:08.711Z,23.25
2016-08-11T03:35:08.715Z,23.29
2016-08-11T03:36:08.714Z,23.26
2016-08-11T03:37:08.733Z,23.22
2016-08-11T03:38:08.726Z,23.24
2016-08-11T03:39:08.744Z,23.24
2016-08-11T03:40:08.734Z,23.21
2016-08-11T03:41:08.747Z,23.25
2016-08-11T03:42:08.744Z,23.26
2016-08-11T03:43:08.759Z,23.25
2016-08-11T03:44:08.757Z,23.24
2016-08-11T03:45:08.763Z,23.21
2016-08-11T03:46:08.783Z,23.15
2016-08-11T03:47:08.778Z,23.19
2016-08-11T03:48:08.775Z,23.18
2016-08-11T03:49:08.791Z,23.24
2016-08-11T03:50:08.790Z,23.14
2016-08-11T03:51:08.792Z,23.18
2016-08-11T03:52:08.793Z,23.26
2016-08-11T03:53:08.816Z,23.24
2016-08-11T03:54:08.809Z,23.24
2016-08-11T03:55:09.789Z,23.24
2016-08-11T03:56:08.813Z,23.22
2016-08-11T03:57:08.823Z,23.24
2016-08-11T03:58:08.823Z,23.26
2016-08-11T04:01:08.841Z,23.18
2016-08-11T04:02:08.844Z,23.25
2016-08-11T04:03:08.848Z,23.21
2016-08-11T04:04:08.852Z,23.21
2016-08-11T04:05:08.863Z,23.18
2016-08-11T04:06:08.868Z,23.15
2016-08-11T04:07:08.890Z,23.18
2016-08-11T04:08:08.881Z,23.15
2016-08-11T04:09:08.882Z,23.22
2016-08-11T04:10:08.891Z,23.15
2016-08-11T04:11:08.889Z,23.16
2016-08-11T04:12:08.896Z,23.15
2016-08-11T04:13:08.900Z,23.19
2016-08-11T04:14:08.903Z,23.26
2016-08-11T04:15:08.909Z,23.21
2016-08-11T04:16:08.925Z,23.16
2016-08-11T04:17:08.914Z,23.24
2016-08-11T04:18:08.921Z,23.15
2016-08-11T04:19:08.927Z,23.19
2016-08-11T04:20:08.938Z,23.22
2016-08-11T04:21:08.940Z,23.19
2016-08-11T04:22:08.942Z,23.15
2016-08-11T04:23:08.949Z,23.19
2016-08-11T04:24:09.359Z,23.24
2016-08-11T04:25:08.961Z,23.26
2016-08-11T04:26:08.967Z,23.22
2016-08-11T04:27:08.965Z,23.24
2016-08-11T04:28:08.972Z,23.18
2016-08-11T04:29:10.198Z,23.19
2016-08-11T04:30:08.980Z,23.24
2016-08-11T04:31:08.992Z,23.19
2016-08-11T04:32:08.996Z,23.21
2016-08-11T04:33:08.995Z,23.15
2016-08-11T04:34:09.001Z,23.22
2016-08-11T04:35:09.006Z,23.15
2016-08-11T04:36:09.009Z,23.22
2016-08-11T04:37:09.016Z,23.18
2016-08-11T04:38:09.745Z,23.19
2016-08-11T04:39:09.025Z,23.21
2016-08-11T04:40:09.028Z,23.19
2016-08-11T04:41:09.034Z,23.22
2016-08-11T04:42:09.049Z,23.22
2016-08-11T04:43:09.047Z,23.15
2016-08-11T04:44:09.047Z,23.18
2016-08-11T04:45:09.059Z,23.18
2016-08-11T04:46:09.062Z,23.15
2016-08-11T04:47:09.065Z,23.16
2016-08-11T04:48:09.070Z,23.16
2016-08-11T04:49:09.074Z,23.18
2016-08-11T04:50:09.077Z,23.19
2016-08-11T04:51:09.087Z,23.18
2016-08-11T04:52:09.093Z,23.19
2016-08-11T04:53:09.097Z,23.18
2016-08-11T04:54:09.159Z,23.22
2016-08-11T04:55:09.110Z,23.18
2016-08-11T04:56:09.109Z,23.18
2016-08-11T04:57:09.116Z,23.18
2016-08-11T04:58:09.118Z,23.18
2016-08-11T04:59:09.123Z,23.22
2016-08-11T05:00:09.145Z,23.14
2016-08-11T05:01:09.148Z,23.18
2016-08-11T05:02:09.141Z,23.15
2016-08-11T05:03:09.146Z,23.18
2016-08-11T05:04:09.161Z,23.12
2016-08-11T05:05:09.156Z,23.16
2016-08-11T05:06:09.159Z,23.18
2016-08-11T05:07:09.188Z,23.12
2016-08-11T05:08:09.185Z,23.16
2016-08-11T05:09:09.180Z,23.19
2016-08-11T05:10:09.192Z,23.21
2016-08-11T05:11:09.182Z,23.14
2016-08-11T05:12:09.191Z,23.18
2016-08-11T05:13:09.188Z,23.18
2016-08-11T05:14:09.198Z,23.12
2016-08-11T05:15:09.920Z,23.06
2016-08-11T05:16:09.207Z,23.12
2016-08-11T05:17:09.211Z,23.18
2016-08-11T05:18:09.214Z,23.15
2016-08-11T05:19:09.219Z,23.21
2016-08-11T05:20:09.228Z,23.12
2016-08-11T05:21:09.243Z,23.21
2016-08-11T05:22:09.233Z,23.15
2016-08-11T05:23:09.242Z,23.15
2016-08-11T05:24:09.253Z,23.21
2016-08-11T05:25:09.251Z,23.07
